Concord, Michigan
Current Conditions -  °F | °C
As of 9:56 PM on Friday 21 Nov 2014 (Local Time) from KJXN Reporting Station
Clear Clear  
Wind Chill: 11°   Ceiling: Unl
Heat Index: 21°   Visibility: 10mi
Dew Point: 11°   Wind: 8mph
Humidity: 65%   Direction: 190°S
Pressure: 30.32"   Gusts: NA
Location:  42.18°N, 84.64°W
Report Text: KJXN 220256Z 19007KT 10SM CLR M06/M12 A3032 RMK AO2 SLP283 T10611117 58020
Loading
Personal Weather Stations






























Interactive Weather Map New forecast layout! Learn more

10-Day Weather Forecast

Advertisements
Track Severe Weather on mobile